Time;durP1;ratioP1;P1;durP2;ratioP2;P2;SDS_P1;SDS_P2;PMS_P1;PMS_P2;Temp;Humidity;BMP_temperature;BMP_pressure;BME280_temperature;BME280_humidity;BME280_pressure;Samples;Min_cycle;Max_cycle;Signal;HPM_P1;HPM_P2
2022/02/08 00:01:01;;;;;;;6.88;1.25;;;5.40;99.90;;;;;;6078984;23;20019;-87
2022/02/08 00:03:26;;;;;;;4.45;1.13;;;5.50;99.90;;;;;;6073146;23;20048;-88
2022/02/08 00:06:36;;;;;;;8.23;1.65;;;5.50;99.90;;;;;;6072730;23;20435;-88
2022/02/08 00:08:43;;;;;;;4.95;0.70;;;5.50;99.90;;;;;;6107139;23;20037;-88
2022/02/08 00:11:10;;;;;;;9.35;1.88;;;5.50;99.90;;;;;;6074936;23;20025;-88
2022/02/08 00:13:35;;;;;;;13.45;2.03;;;5.60;99.90;;;;;;6074551;23;20703;-88
2022/02/08 00:16:01;;;;;;;5.63;1.42;;;5.50;99.90;;;;;;6074384;23;20029;-87
2022/02/08 00:18:26;;;;;;;2.58;0.98;;;5.50;99.90;;;;;;6075406;23;20084;-88
2022/02/08 00:20:52;;;;;;;4.18;1.05;;;5.50;99.90;;;;;;6057940;23;20473;-88
2022/02/08 00:23:18;;;;;;;9.48;1.95;;;5.50;99.90;;;;;;6074753;23;20109;-87
2022/02/08 00:25:44;;;;;;;6.57;1.80;;;5.50;99.90;;;;;;6072195;23;20017;-87
2022/02/08 00:28:09;;;;;;;6.22;1.27;;;5.60;99.90;;;;;;6074739;23;20069;-87
2022/02/08 00:30:37;;;;;;;7.38;1.58;;;5.60;99.90;;;;;;6073256;23;20068;-88
2022/02/08 00:33:05;;;;;;;4.85;1.23;;;5.60;99.90;;;;;;6072403;23;20040;-88
2022/02/08 00:35:31;;;;;;;6.90;1.30;;;5.60;99.90;;;;;;6072957;23;20381;-88
2022/02/08 00:37:56;;;;;;;2.13;0.68;;;5.60;99.90;;;;;;6073924;23;20085;-88
2022/02/08 00:40:25;;;;;;;5.80;2.05;;;5.60;99.90;;;;;;6070289;23;20020;-88
2022/02/08 00:42:51;;;;;;;15.55;2.88;;;5.60;99.90;;;;;;6074472;23;20030;-88
2022/02/08 00:45:48;;;;;;;6.75;1.83;;;5.70;99.90;;;;;;6074515;23;20461;-88
2022/02/08 00:48:19;;;;;;;7.68;1.25;;;5.60;99.90;;;;;;6119143;23;20484;-88
2022/02/08 00:50:49;;;;;;;7.15;1.83;;;5.60;99.90;;;;;;6074477;23;20036;-87
2022/02/08 00:53:16;;;;;;;5.57;1.10;;;5.60;99.90;;;;;;6076063;23;20275;-88
2022/02/08 00:55:41;;;;;;;7.78;1.85;;;5.70;99.90;;;;;;6083366;23;20016;-87
2022/02/08 00:58:07;;;;;;;5.97;1.10;;;5.70;99.90;;;;;;6099407;23;20001;-88
2022/02/08 01:00:35;;;;;;;8.73;1.60;;;5.70;99.90;;;;;;6073631;23;20010;-88
2022/02/08 01:03:01;;;;;;;12.85;1.42;;;5.70;99.90;;;;;;6073741;23;20025;-88
2022/02/08 01:05:27;;;;;;;7.32;1.30;;;5.70;99.90;;;;;;6074745;23;20009;-88
2022/02/08 01:07:52;;;;;;;15.50;2.17;;;5.70;99.90;;;;;;6073889;23;20018;-88
2022/02/08 01:10:20;;;;;;;10.15;2.13;;;5.70;99.90;;;;;;6044727;23;20079;-88
2022/02/08 01:12:48;;;;;;;15.20;3.55;;;5.70;99.90;;;;;;6062557;23;20100;-87
2022/02/08 01:15:15;;;;;;;7.72;2.05;;;5.70;99.90;;;;;;6041784;23;20093;-87
2022/02/08 01:17:40;;;;;;;7.90;2.20;;;5.80;99.90;;;;;;6071269;23;20017;-88
2022/02/08 01:20:12;;;;;;;10.55;1.33;;;5.80;99.90;;;;;;6098006;23;20355;-88
2022/02/08 01:22:42;;;;;;;11.25;3.13;;;5.80;99.90;;;;;;6076580;23;20017;-88
2022/02/08 01:25:12;;;;;;;5.70;1.77;;;5.80;99.90;;;;;;6074323;23;20013;-88
2022/02/08 01:27:45;;;;;;;12.10;2.05;;;5.80;99.90;;;;;;6073550;23;20489;-88
2022/02/08 01:30:27;;;;;;;12.27;1.67;;;5.80;99.90;;;;;;6100873;23;20018;-88
2022/02/08 01:38:12;;;;;;;7.07;2.53;;;5.80;99.90;;;;;;6100230;23;20013;-87
2022/02/08 01:46:30;;;;;;;12.57;2.30;;;5.70;99.90;;;;;;6103407;23;20056;-87
2022/02/08 01:49:11;;;;;;;10.93;2.25;;;5.70;99.90;;;;;;6083015;23;20017;-87
2022/02/08 01:51:36;;;;;;;8.07;2.65;;;5.70;99.90;;;;;;6079267;23;20017;-87
2022/02/08 01:54:02;;;;;;;9.13;1.80;;;5.60;99.90;;;;;;6072355;23;20032;-87
2022/02/08 01:56:28;;;;;;;10.88;2.13;;;5.70;99.90;;;;;;6057649;23;20347;-88
2022/02/08 01:58:53;;;;;;;6.53;1.77;;;5.60;99.90;;;;;;6072557;23;20047;-89
2022/02/08 02:01:19;;;;;;;4.18;1.45;;;5.70;99.90;;;;;;6071550;23;20018;-87
2022/02/08 02:03:44;;;;;;;12.60;2.35;;;5.70;99.90;;;;;;6096420;23;20088;-87
2022/02/08 02:06:10;;;;;;;20.48;3.85;;;5.70;99.90;;;;;;6072775;23;20016;-88
2022/02/08 02:08:36;;;;;;;12.43;3.53;;;5.70;99.90;;;;;;6071919;23;20070;-88
2022/02/08 02:11:02;;;;;;;12.68;3.22;;;5.60;99.90;;;;;;6072493;23;20123;-88
2022/02/08 02:13:48;;;;;;;10.60;1.65;;;5.60;99.90;;;;;;6072115;23;20045;-88
2022/02/08 02:16:20;;;;;;;;;;;5.60;99.90;;;;;;6080754;23;20021;-87
2022/02/08 02:18:46;;;;;;;13.13;4.00;;;5.60;99.90;;;;;;6096885;23;19905;-87
2022/02/08 02:21:12;;;;;;;14.85;3.58;;;5.60;99.90;;;;;;6072696;23;20065;-88
2022/02/08 02:23:38;;;;;;;7.20;3.00;;;5.60;99.90;;;;;;6072382;23;20010;-88
2022/02/08 02:26:03;;;;;;;10.73;2.90;;;5.60;99.90;;;;;;6072702;23;20006;-88
2022/02/08 02:28:30;;;;;;;13.45;2.60;;;5.60;99.90;;;;;;6072323;23;20343;-88
2022/02/08 02:30:56;;;;;;;6.65;1.73;;;5.60;99.90;;;;;;6072754;23;20450;-88
2022/02/08 02:33:22;;;;;;;18.77;3.22;;;5.60;99.90;;;;;;6070664;23;20145;-88
2022/02/08 02:35:48;;;;;;;12.35;3.42;;;5.60;99.90;;;;;;6071249;23;20330;-88
2022/02/08 02:38:13;;;;;;;8.40;3.22;;;5.60;99.90;;;;;;6097374;23;20012;-89
2022/02/08 02:40:44;;;;;;;11.32;2.80;;;5.60;99.90;;;;;;6071259;23;20013;-89
2022/02/08 02:43:10;;;;;;;7.80;2.72;;;5.60;99.90;;;;;;6073247;23;20014;-89
2022/02/08 02:45:36;;;;;;;8.20;3.75;;;5.50;99.90;;;;;;6072268;23;20017;-89
2022/02/08 02:48:02;;;;;;;7.35;1.98;;;5.60;99.90;;;;;;6072448;23;20434;-88
2022/02/08 02:50:27;;;;;;;9.55;3.25;;;5.60;99.90;;;;;;6096044;23;20017;-89
2022/02/08 02:52:53;;;;;;;5.43;2.03;;;5.60;99.90;;;;;;6073289;23;20018;-89
2022/02/08 02:55:19;;;;;;;9.80;2.90;;;5.60;99.90;;;;;;6073833;23;20009;-88
2022/02/08 02:57:47;;;;;;;1.90;1.35;;;5.60;99.90;;;;;;6073910;23;20020;-89
2022/02/08 03:00:26;;;;;;;8.57;3.47;;;5.60;99.90;;;;;;6073511;23;20010;-89
2022/02/08 03:02:58;;;;;;;4.55;2.35;;;5.60;99.90;;;;;;6077063;23;20021;-89
2022/02/08 03:18:56;;;;;;;10.45;4.15;;;5.60;99.90;;;;;;6101532;23;20028;-87
2022/02/08 03:21:22;;;;;;;4.95;2.10;;;5.60;99.90;;;;;;6071234;23;20085;-87
2022/02/08 03:23:47;;;;;;;4.10;2.03;;;5.70;99.90;;;;;;6071358;23;20394;-87
2022/02/08 03:26:13;;;;;;;1.35;1.00;;;5.60;99.90;;;;;;6072349;23;20066;-86
2022/02/08 03:28:38;;;;;;;10.30;4.78;;;5.60;99.90;;;;;;6070436;23;20020;-87
2022/02/08 03:31:04;;;;;;;6.68;3.35;;;5.60;99.90;;;;;;6071434;23;20044;-87
2022/02/08 03:33:30;;;;;;;6.80;3.20;;;5.60;99.90;;;;;;6072054;23;20021;-87
2022/02/08 03:35:56;;;;;;;10.80;3.20;;;5.60;99.90;;;;;;6070897;23;20419;-87
2022/02/08 03:38:38;;;;;;;8.18;3.15;;;5.60;99.90;;;;;;6073894;23;20013;-87
2022/02/08 03:41:07;;;;;;;6.43;3.33;;;5.60;99.90;;;;;;6078573;23;20018;-87
2022/02/08 03:43:33;;;;;;;14.27;3.40;;;5.60;99.90;;;;;;6074105;23;20024;-86
2022/02/08 03:46:04;;;;;;;3.90;2.40;;;5.60;99.90;;;;;;6098222;23;20255;-86
2022/02/08 03:48:32;;;;;;;6.55;2.45;;;5.60;99.90;;;;;;6074374;23;20061;-85
2022/02/08 03:51:12;;;;;;;6.32;3.25;;;5.60;99.90;;;;;;6070368;23;20025;-89
2022/02/08 03:53:41;;;;;;;7.40;2.88;;;5.60;99.90;;;;;;6081280;23;20010;-89
2022/02/08 03:56:07;;;;;;;2.78;1.75;;;5.60;99.90;;;;;;6075356;23;20052;-89
2022/02/08 03:58:33;;;;;;;11.15;4.43;;;5.70;99.90;;;;;;6073870;23;20017;-89
2022/02/08 04:03:43;;;;;;;2.38;1.83;;;5.70;99.90;;;;;;6103207;23;20068;-89
2022/02/08 04:06:08;;;;;;;4.97;2.83;;;5.70;99.90;;;;;;6077321;23;20017;-89
2022/02/08 04:08:35;;;;;;;3.83;3.15;;;5.70;99.90;;;;;;6073518;23;20001;-89
2022/02/08 04:11:01;;;;;;;4.20;2.35;;;5.70;99.90;;;;;;6073634;23;20028;-88
2022/02/08 04:13:44;;;;;;;10.80;5.07;;;5.80;99.90;;;;;;6056826;23;20014;-88
2022/02/08 04:16:24;;;;;;;8.10;3.25;;;5.80;99.90;;;;;;6069715;23;20009;-88
2022/02/08 04:35:21;;;;;;;10.23;5.20;;;5.90;99.90;;;;;;6105436;23;20012;-88
2022/02/08 04:43:00;;;;;;;11.23;6.40;;;6.00;99.90;;;;;;6101577;23;20006;-89
2022/02/08 04:45:36;;;;;;;6.50;3.55;;;6.00;99.90;;;;;;6080005;23;20009;-88
2022/02/08 04:48:14;;;;;;;5.60;3.63;;;6.00;99.90;;;;;;6078650;23;20076;-88
2022/02/08 04:50:41;;;;;;;6.90;3.75;;;6.00;99.90;;;;;;6078524;23;20018;-88
2022/02/08 04:53:15;;;;;;;3.92;3.33;;;6.00;99.90;;;;;;6075261;23;20039;-88
2022/02/08 04:55:50;;;;;;;7.20;3.78;;;6.00;99.90;;;;;;6077176;23;20014;-88
2022/02/08 05:01:02;;;;;;;10.05;4.93;;;6.10;99.90;;;;;;6097240;23;20020;-88
2022/02/08 05:42:05;;;;;;;10.40;4.50;;;6.40;99.90;;;;;;6105033;23;20438;-88
2022/02/08 05:44:40;;;;;;;13.93;8.95;;;6.40;99.90;;;;;;6080425;23;20144;-89
2022/02/08 05:47:07;;;;;;;11.85;5.70;;;6.40;99.90;;;;;;6077865;23;20459;-89
2022/02/08 05:49:44;;;;;;;10.13;5.00;;;6.40;99.90;;;;;;6070911;23;20473;-89
2022/02/08 05:52:32;;;;;;;14.18;5.07;;;6.40;99.90;;;;;;6100950;23;20343;-89
2022/02/08 05:54:55;;;;;;;8.13;3.77;;;6.50;99.90;;;;;;6104459;23;20044;-88
2022/02/08 05:57:21;;;;;;;7.90;3.92;;;6.50;99.90;;;;;;6073299;23;20009;-90
2022/02/08 05:59:49;;;;;;;11.48;5.75;;;6.50;99.90;;;;;;6073518;23;20065;-89
2022/02/08 06:02:15;;;;;;;10.60;5.57;;;6.50;99.90;;;;;;6073244;23;20017;-89
2022/02/08 06:04:41;;;;;;;12.88;4.03;;;6.50;99.90;;;;;;6070725;23;20013;-89
2022/02/08 06:07:06;;;;;;;11.05;6.60;;;6.50;99.90;;;;;;6074159;23;20056;-89
2022/02/08 06:09:32;;;;;;;16.25;5.05;;;6.60;99.90;;;;;;6096928;23;20024;-88
2022/02/08 06:11:58;;;;;;;5.93;3.92;;;6.60;99.90;;;;;;6097428;23;20024;-88
2022/02/08 06:14:28;;;;;;;11.60;7.57;;;6.60;99.90;;;;;;6071152;23;20093;-89
2022/02/08 06:16:54;;;;;;;6.30;4.55;;;6.60;99.90;;;;;;6075991;23;20461;-90
2022/02/08 06:19:20;;;;;;;8.05;5.05;;;6.60;99.90;;;;;;6074028;23;20088;-90
2022/02/08 06:21:45;;;;;;;8.13;5.93;;;6.60;99.90;;;;;;6072446;23;20010;-90
2022/02/08 06:24:13;;;;;;;7.80;5.05;;;6.60;99.90;;;;;;6073369;23;20033;-90
2022/02/08 06:26:44;;;;;;;10.55;3.65;;;6.60;99.90;;;;;;6049979;23;20016;-90
2022/02/08 06:29:18;;;;;;;6.72;4.45;;;6.60;99.90;;;;;;6083234;23;20070;-90
2022/02/08 06:31:46;;;;;;;9.82;5.80;;;6.70;99.90;;;;;;6062242;23;20405;-90
2022/02/08 06:34:23;;;;;;;8.38;5.95;;;6.60;99.90;;;;;;6097701;23;20027;-89
2022/02/08 06:36:56;;;;;;;10.60;6.15;;;6.80;99.90;;;;;;6072859;23;20028;-90
2022/02/08 06:39:33;;;;;;;5.65;3.95;;;6.70;99.90;;;;;;6063656;23;20006;-90
2022/02/08 06:42:08;;;;;;;7.35;5.28;;;6.80;99.90;;;;;;6061112;23;20396;-91
2022/02/08 06:44:34;;;;;;;5.47;4.40;;;6.70;99.90;;;;;;6018633;23;20092;-90
2022/02/08 06:47:00;;;;;;;8.80;5.85;;;6.70;99.90;;;;;;6044886;23;20038;-90
2022/02/08 06:49:26;;;;;;;12.10;7.65;;;6.70;99.90;;;;;;6075712;23;20045;-91
2022/02/08 06:51:51;;;;;;;5.15;2.95;;;6.80;99.90;;;;;;6073221;23;20434;-90
2022/02/08 06:54:24;;;;;;;8.48;6.10;;;6.80;99.90;;;;;;6057006;23;20010;-90
2022/02/08 06:56:50;;;;;;;11.35;6.30;;;6.80;99.90;;;;;;6081971;23;20076;-89
2022/02/08 06:59:18;;;;;;;6.47;5.00;;;6.80;99.90;;;;;;6045690;23;20430;-90
2022/02/08 07:01:49;;;;;;;9.73;5.97;;;6.80;99.90;;;;;;6040273;23;20014;-90
2022/02/08 07:04:15;;;;;;;6.75;4.38;;;6.80;99.90;;;;;;6068519;23;20026;-90
2022/02/08 07:06:49;;;;;;;5.55;3.95;;;6.80;99.90;;;;;;6073042;23;20092;-89
2022/02/08 07:09:30;;;;;;;5.88;3.78;;;6.80;99.90;;;;;;6061007;23;20022;-90
2022/02/08 07:11:59;;;;;;;4.00;2.65;;;6.90;99.90;;;;;;6077657;23;20009;-90
2022/02/08 07:14:31;;;;;;;9.20;7.13;;;6.90;99.90;;;;;;6074880;23;20070;-89
2022/02/08 07:17:02;;;;;;;8.40;5.28;;;7.00;99.90;;;;;;6070808;23;20017;-91
2022/02/08 07:19:28;;;;;;;6.00;4.07;;;6.90;99.90;;;;;;6072902;23;20006;-90
2022/02/08 07:21:53;;;;;;;6.25;4.13;;;7.00;99.90;;;;;;6075466;23;20112;-90
2022/02/08 07:24:19;;;;;;;8.98;4.93;;;6.90;99.90;;;;;;6062519;23;20048;-90
2022/02/08 07:26:46;;;;;;;10.65;6.18;;;6.90;99.90;;;;;;6099016;23;20020;-90
2022/02/08 07:29:13;;;;;;;11.50;7.88;;;6.90;99.90;;;;;;6061741;23;20040;-90
2022/02/08 07:31:48;;;;;;;8.88;5.28;;;7.00;99.90;;;;;;6090197;23;20010;-90
2022/02/08 07:34:22;;;;;;;8.57;4.75;;;6.90;99.90;;;;;;6048473;23;20013;-90
2022/02/08 07:39:37;;;;;;;8.52;6.25;;;7.00;99.90;;;;;;6103370;23;20017;-88
2022/02/08 07:42:08;;;;;;;5.93;3.78;;;7.10;99.90;;;;;;6079488;23;20017;-89
2022/02/08 07:44:34;;;;;;;7.85;4.68;;;7.00;99.90;;;;;;6075690;23;20014;-88
2022/02/08 07:47:00;;;;;;;10.40;5.60;;;7.10;99.90;;;;;;6072521;23;20510;-88
2022/02/08 07:49:26;;;;;;;5.95;3.17;;;7.10;99.90;;;;;;6074140;23;20076;-89
2022/02/08 07:51:54;;;;;;;10.02;7.15;;;7.10;99.90;;;;;;6073971;23;20042;-88
2022/02/08 07:54:19;;;;;;;9.00;6.07;;;7.10;99.90;;;;;;6072244;23;20048;-89
2022/02/08 07:56:45;;;;;;;9.05;5.57;;;7.10;99.90;;;;;;6074308;23;20017;-89
2022/02/08 07:59:11;;;;;;;10.88;5.45;;;7.10;99.90;;;;;;6073456;23;20051;-89
2022/02/08 08:01:36;;;;;;;7.03;4.57;;;7.20;99.90;;;;;;6070289;23;20554;-88
2022/02/08 08:04:02;;;;;;;11.57;4.63;;;7.20;99.90;;;;;;6073940;23;20010;-89
2022/02/08 08:06:28;;;;;;;8.98;5.72;;;7.20;99.90;;;;;;6074996;23;20014;-89
2022/02/08 08:08:54;;;;;;;8.10;5.80;;;7.20;99.90;;;;;;6073936;23;20421;-88
2022/02/08 08:11:21;;;;;;;10.13;6.25;;;7.20;99.90;;;;;;6074213;23;20108;-89
2022/02/08 08:13:51;;;;;;;11.38;8.15;;;7.30;99.90;;;;;;6073177;23;20399;-89
2022/02/08 08:16:45;;;;;;;8.20;5.45;;;7.30;99.90;;;;;;6072364;23;20450;-88
2022/02/08 08:19:08;;;;;;;11.43;7.05;;;7.30;99.90;;;;;;6103999;23;20020;-89
2022/02/08 08:21:34;;;;;;;9.07;4.22;;;7.30;99.90;;;;;;6074761;23;20109;-89
2022/02/08 08:24:00;;;;;;;15.75;7.80;;;7.40;99.90;;;;;;6070619;23;20520;-89
2022/02/08 08:26:27;;;;;;;11.30;3.83;;;7.40;99.90;;;;;;6061270;23;20040;-91
2022/02/08 08:28:53;;;;;;;9.85;6.57;;;7.40;99.90;;;;;;6075674;23;20017;-89
2022/02/08 08:31:18;;;;;;;13.75;8.07;;;7.40;99.90;;;;;;6073785;23;20016;-89
2022/02/08 08:33:44;;;;;;;13.18;5.53;;;7.40;99.90;;;;;;6061867;23;20068;-89
2022/02/08 08:36:11;;;;;;;10.57;6.78;;;7.50;99.90;;;;;;6058123;23;20014;-90
2022/02/08 08:38:46;;;;;;;10.77;5.35;;;7.50;99.90;;;;;;6096714;23;20033;-89
2022/02/08 08:41:25;;;;;;;8.75;4.45;;;7.50;99.90;;;;;;6070741;23;20442;-89
2022/02/08 08:49:49;;;;;;;10.55;5.65;;;7.60;99.90;;;;;;6102769;23;20100;-89
2022/02/08 08:52:17;;;;;;;13.20;6.50;;;7.60;99.90;;;;;;6075346;23;20009;-89
2022/02/08 08:54:45;;;;;;;17.73;9.13;;;7.70;99.90;;;;;;6072696;23;20438;-89
2022/02/08 08:57:11;;;;;;;13.68;7.05;;;7.70;99.90;;;;;;6072236;23;20045;-90
2022/02/08 08:59:39;;;;;;;12.55;7.15;;;7.80;99.90;;;;;;6061067;23;20017;-89
2022/02/08 09:02:05;;;;;;;12.05;6.80;;;7.80;99.90;;;;;;6058937;23;20100;-89
2022/02/08 09:04:43;;;;;;;12.60;6.70;;;7.90;99.90;;;;;;6059233;23;20011;-89
2022/02/08 09:07:09;;;;;;;11.75;6.88;;;7.90;99.90;;;;;;6078260;23;20438;-89
2022/02/08 09:09:38;;;;;;;11.25;6.25;;;7.90;99.90;;;;;;6057680;23;20009;-89
2022/02/08 09:12:17;;;;;;;17.30;7.75;;;7.90;99.90;;;;;;6073435;23;20020;-89
2022/02/08 09:17:41;;;;;;;11.77;5.50;;;8.00;99.90;;;;;;6069356;23;20010;-89
2022/02/08 09:28:22;;;;;;;8.40;4.03;;;8.20;99.90;;;;;;6113232;23;20020;-88
2022/02/08 09:30:59;;;;;;;8.13;4.80;;;8.30;99.90;;;;;;6075723;23;20020;-89
2022/02/08 09:33:25;;;;;;;12.52;7.80;;;8.30;99.90;;;;;;6061252;23;20375;-89
2022/02/08 09:35:51;;;;;;;11.57;6.65;;;8.40;99.90;;;;;;6072463;23;20016;-89
2022/02/08 09:38:17;;;;;;;11.02;6.65;;;8.30;99.90;;;;;;6072608;23;20764;-89
2022/02/08 09:40:55;;;;;;;10.55;6.68;;;8.40;99.90;;;;;;6070974;23;20017;-89
2022/02/08 09:43:21;;;;;;;13.95;7.60;;;8.40;99.90;;;;;;6073975;23;20017;-89
2022/02/08 09:45:50;;;;;;;10.23;4.32;;;8.50;99.90;;;;;;6056648;23;20016;-88
2022/02/08 09:48:26;;;;;;;11.40;7.03;;;8.40;99.90;;;;;;6073083;23;20108;-89
2022/02/08 09:50:56;;;;;;;18.92;5.50;;;8.50;99.90;;;;;;6074326;23;20450;-89
2022/02/08 09:53:31;;;;;;;15.32;5.40;;;8.60;99.90;;;;;;6058602;23;20386;-89
2022/02/08 09:55:57;;;;;;;10.77;5.60;;;8.50;99.90;;;;;;6051796;23;20450;-89
2022/02/08 09:58:27;;;;;;;17.98;7.47;;;8.60;99.90;;;;;;6040018;23;20022;-89
2022/02/08 10:01:23;;;;;;;11.15;5.00;;;8.60;99.90;;;;;;6038568;23;20021;-89
2022/02/08 10:03:57;;;;;;;5.80;3.78;;;8.60;99.90;;;;;;6075423;23;20596;-90
2022/02/08 10:06:26;;;;;;;8.95;6.15;;;8.70;99.90;;;;;;6060650;23;20009;-89
2022/02/08 10:08:59;;;;;;;12.52;7.15;;;8.80;99.90;;;;;;6069702;23;20016;-89
2022/02/08 10:11:31;;;;;;;13.18;6.93;;;8.70;99.90;;;;;;6055985;23;20037;-89
2022/02/08 10:14:19;;;;;;;8.00;4.97;;;8.80;99.90;;;;;;6073790;23;20017;-89
2022/02/08 10:22:33;;;;;;;12.25;6.10;;;8.90;99.90;;;;;;6114221;23;20188;-89
2022/02/08 10:25:07;;;;;;;10.93;5.53;;;9.10;99.90;;;;;;6065732;23;20024;-89
2022/02/08 10:27:37;;;;;;;5.40;3.67;;;9.10;99.90;;;;;;6061258;23;20010;-89
2022/02/08 10:30:44;;;;;;;7.75;4.75;;;9.20;99.90;;;;;;6072722;23;20052;-90
2022/02/08 10:38:46;;;;;;;13.75;5.30;;;9.20;99.90;;;;;;6088278;23;20390;-91
2022/02/08 10:41:21;;;;;;;10.07;4.70;;;9.30;99.90;;;;;;6082596;23;20076;-91
2022/02/08 10:44:10;;;;;;;5.75;3.92;;;9.30;99.90;;;;;;6075474;23;20461;-90
2022/02/08 10:46:36;;;;;;;10.25;3.97;;;9.30;99.90;;;;;;6076465;23;20009;-91
2022/02/08 10:49:10;;;;;;;5.90;3.10;;;9.30;99.90;;;;;;6058579;23;20470;-91
2022/02/08 10:52:01;;;;;;;7.93;3.92;;;9.30;99.90;;;;;;6059519;23;20490;-91
2022/02/08 10:57:31;;;;;;;5.18;2.92;;;9.60;99.90;;;;;;6072952;23;20020;-91
2022/02/08 11:00:05;;;;;;;9.27;4.22;;;9.70;99.90;;;;;;6065312;23;20069;-92
2022/02/08 11:02:37;;;;;;;8.48;3.13;;;9.70;99.90;;;;;;6045645;23;20048;-91
2022/02/08 11:05:25;;;;;;;12.40;3.33;;;9.70;99.90;;;;;;6083734;23;20107;-91
2022/02/08 11:16:03;;;;;;;5.15;3.80;;;9.90;99.90;;;;;;6089203;23;20769;-91
2022/02/08 11:26:43;;;;;;;7.63;4.13;;;10.10;99.90;;;;;;6108317;23;20013;-92
2022/02/08 11:29:23;;;;;;;5.38;2.78;;;10.10;99.90;;;;;;6063774;23;20124;-91
2022/02/08 11:46:09;;;;;;;4.00;2.05;;;10.10;99.90;;;;;;6107279;23;20020;-92
2022/02/08 11:54:05;;;;;;;3.15;1.85;;;10.00;99.90;;;;;;6100557;23;20022;-91
2022/02/08 11:57:14;;;;;;;6.65;2.45;;;10.00;99.90;;;;;;6075800;23;20009;-91
2022/02/08 11:59:38;;;;;;;6.15;2.45;;;10.10;99.90;;;;;;6106225;23;20005;-92
2022/02/08 12:07:34;;;;;;;;;;;10.10;99.90;;;;;;6104384;23;20029;-91
2022/02/08 12:10:39;;;;;;;4.85;2.30;;;10.10;99.90;;;;;;6065562;23;19994;-91
2022/02/08 12:33:29;;;;;;;3.25;1.48;;;10.20;99.90;;;;;;6125490;23;20010;-89
2022/02/08 12:53:42;;;;;;;3.33;1.58;;;10.40;99.90;;;;;;6086058;23;20017;-88
2022/02/08 13:04:57;;;;;;;1.40;0.50;;;10.50;99.90;;;;;;6100464;23;20012;-88
2022/02/08 14:07:17;;;;;;;0.77;0.55;;;10.70;99.90;;;;;;6053884;23;20032;-89
2022/02/08 14:21:19;;;;;;;6.57;1.23;;;10.70;99.90;;;;;;5994053;23;20023;-88
2022/02/08 14:23:57;;;;;;;2.38;1.38;;;10.60;99.90;;;;;;6004464;23;20015;-88
2022/02/08 15:10:25;;;;;;;10.70;1.42;;;10.30;99.90;;;;;;6070110;23;20013;-87
2022/02/08 15:12:55;;;;;;;3.17;1.02;;;10.30;99.90;;;;;;6096326;23;20017;-87
2022/02/08 15:17:55;;;;;;;9.32;1.70;;;10.30;99.90;;;;;;6057090;23;20021;-87
2022/02/08 15:20:27;;;;;;;4.88;1.20;;;10.20;99.90;;;;;;6096143;23;20447;-87
2022/02/08 15:22:57;;;;;;;5.28;1.25;;;10.20;99.90;;;;;;6065921;23;20014;-86
2022/02/08 15:25:23;;;;;;;3.13;1.35;;;10.20;99.90;;;;;;6072974;23;20029;-86
2022/02/08 15:27:48;;;;;;;9.07;1.27;;;10.20;99.90;;;;;;6096105;23;20013;-86
2022/02/08 15:30:14;;;;;;;7.70;2.30;;;10.20;99.90;;;;;;6057713;23;20006;-87
2022/02/08 15:32:40;;;;;;;2.08;1.05;;;10.20;99.90;;;;;;6060049;23;20134;-86
2022/02/08 15:35:14;;;;;;;13.40;2.13;;;10.20;99.90;;;;;;6083339;23;20017;-86
2022/02/08 15:38:16;;;;;;;3.55;1.17;;;10.10;99.90;;;;;;6038264;23;20126;-87
2022/02/08 15:40:41;;;;;;;4.30;1.20;;;10.20;99.90;;;;;;6079372;23;20475;-87
2022/02/08 15:43:39;;;;;;;2.20;1.33;;;10.10;99.90;;;;;;6059038;23;20049;-86
2022/02/08 15:46:13;;;;;;;2.35;1.00;;;10.10;99.90;;;;;;6098321;23;20013;-87
2022/02/08 15:48:46;;;;;;;4.82;1.30;;;10.10;99.90;;;;;;6075101;23;20017;-88
2022/02/08 15:51:48;;;;;;;4.35;1.20;;;10.10;99.90;;;;;;6060250;23;20099;-88
2022/02/08 15:54:24;;;;;;;3.50;0.75;;;10.10;99.90;;;;;;6107384;23;20350;-88
2022/02/08 16:00:34;;;;;;;2.63;0.82;;;10.10;99.90;;;;;;6091476;23;20736;-87
2022/02/08 16:17:02;;;;;;;4.05;1.10;;;10.00;99.90;;;;;;6071241;23;20016;-88
2022/02/08 16:22:52;;;;;;;;;;;;;;;;;;;;;
2022/02/08 16:28:00;;;;;;;4.38;0.88;;;9.90;99.90;;;;;;6088928;23;20108;-88
2022/02/08 16:52:28;;;;;;;2.55;1.35;;;9.80;99.90;;;;;;6104283;23;20674;-87
2022/02/08 16:55:12;;;;;;;3.35;1.08;;;9.80;99.90;;;;;;6068492;23;20009;-87
2022/02/08 16:57:53;;;;;;;1.85;0.68;;;9.80;99.90;;;;;;6032409;23;20010;-88
2022/02/08 17:00:31;;;;;;;1.30;1.15;;;9.80;99.90;;;;;;6004475;23;20020;-87
2022/02/08 17:03:44;;;;;;;4.03;1.20;;;9.80;99.90;;;;;;6058253;23;20009;-88
2022/02/08 17:06:52;;;;;;;2.13;0.93;;;9.80;99.90;;;;;;6087318;23;20075;-87
2022/02/08 17:09:42;;;;;;;4.43;1.02;;;9.70;99.90;;;;;;6100177;23;20041;-88
2022/02/08 17:12:22;;;;;;;5.40;1.33;;;9.70;99.90;;;;;;6110158;23;20021;-87
2022/02/08 17:15:08;;;;;;;0.57;0.40;;;9.70;99.90;;;;;;6068305;23;20013;-88
2022/02/08 17:34:32;;;;;;;3.33;1.13;;;9.60;99.90;;;;;;6063778;23;20114;-87
2022/02/08 17:46:14;;;;;;;2.78;2.30;;;9.60;99.90;;;;;;6095052;23;20044;-86
2022/02/08 17:48:40;;;;;;;0.68;0.60;;;9.60;99.90;;;;;;6060454;23;20386;-86
2022/02/08 17:51:09;;;;;;;4.75;1.63;;;9.50;99.90;;;;;;6040354;23;20032;-86
2022/02/08 17:53:37;;;;;;;1.40;0.90;;;9.60;99.90;;;;;;6042969;23;20006;-87
2022/02/08 17:56:26;;;;;;;1.15;0.68;;;9.60;99.90;;;;;;6081824;23;20596;-87
2022/02/08 17:58:58;;;;;;;4.70;1.80;;;9.60;99.90;;;;;;6061597;23;20017;-86
2022/02/08 18:01:29;;;;;;;5.93;1.77;;;9.60;99.90;;;;;;6083067;23;20153;-87
2022/02/08 18:04:07;;;;;;;4.72;1.65;;;9.50;99.90;;;;;;6057292;23;20013;-87
2022/02/08 18:06:45;;;;;;;1.80;1.17;;;9.60;99.90;;;;;;6048967;23;20013;-87
2022/02/08 18:09:13;;;;;;;1.40;1.10;;;9.60;99.90;;;;;;6045157;23;20016;-87
2022/02/08 18:11:41;;;;;;;9.30;2.05;;;9.50;99.90;;;;;;6043414;23;20012;-87
2022/02/08 18:14:12;;;;;;;3.95;2.35;;;9.50;99.90;;;;;;6049594;23;20050;-87
2022/02/08 18:17:07;;;;;;;5.80;2.63;;;9.50;99.90;;;;;;6030204;23;20331;-87
2022/02/08 18:19:39;;;;;;;4.30;2.28;;;9.50;99.90;;;;;;6049493;23;20348;-87
2022/02/08 18:22:34;;;;;;;4.40;1.63;;;9.50;99.90;;;;;;6066663;23;20718;-87
2022/02/08 19:15:15;;;;;;;2.67;1.30;;;9.40;99.90;;;;;;6107341;23;20477;-86
2022/02/08 19:20:22;;;;;;;4.25;2.65;;;9.40;99.90;;;;;;6065047;23;20009;-87
2022/02/08 19:23:08;;;;;;;3.22;2.42;;;9.40;99.90;;;;;;6083901;23;20392;-88
2022/02/08 19:25:34;;;;;;;3.60;0.85;;;9.30;99.90;;;;;;6043877;23;20017;-87
2022/02/08 19:28:05;;;;;;;2.72;1.92;;;9.40;99.90;;;;;;6065993;23;20010;-88
2022/02/08 19:30:31;;;;;;;3.80;2.65;;;9.40;99.90;;;;;;6041728;23;20731;-87
2022/02/08 19:33:25;;;;;;;5.28;2.00;;;9.40;99.90;;;;;;6059299;23;20024;-88
2022/02/08 19:35:58;;;;;;;5.78;1.92;;;9.40;99.90;;;;;;6033554;23;20009;-87
2022/02/08 19:39:02;;;;;;;3.75;1.77;;;9.40;99.90;;;;;;6006942;23;20529;-87
2022/02/08 19:41:30;;;;;;;1.92;1.30;;;9.30;99.90;;;;;;6056990;23;20068;-87
2022/02/08 19:43:58;;;;;;;5.10;1.90;;;9.40;99.90;;;;;;6071480;23;20105;-87
2022/02/08 19:46:27;;;;;;;3.15;2.53;;;9.30;99.90;;;;;;6039112;23;20092;-87
2022/02/08 19:49:05;;;;;;;2.72;1.65;;;9.30;99.90;;;;;;6071537;23;20017;-86
2022/02/08 19:51:38;;;;;;;2.85;1.58;;;9.30;99.90;;;;;;6039502;23;20040;-86
2022/02/08 19:54:07;;;;;;;4.78;2.08;;;9.30;99.90;;;;;;6097305;23;20116;-87
2022/02/08 19:59:36;;;;;;;6.05;1.52;;;9.20;99.90;;;;;;6076617;23;20056;-87
2022/02/08 20:02:40;;;;;;;1.35;1.15;;;9.20;99.90;;;;;;6032544;23;20018;-86
2022/02/08 20:05:06;;;;;;;2.55;1.33;;;9.20;99.90;;;;;;6094593;23;20339;-86
2022/02/08 20:07:31;;;;;;;2.90;1.27;;;9.20;99.90;;;;;;6054745;23;20013;-87
2022/02/08 20:10:03;;;;;;;1.67;1.13;;;9.10;99.90;;;;;;6042496;23;20028;-87
2022/02/08 20:12:29;;;;;;;2.83;2.10;;;9.20;99.90;;;;;;6103751;23;20025;-87
2022/02/08 20:14:57;;;;;;;3.42;1.83;;;9.20;99.90;;;;;;6066733;23;20099;-88
2022/02/08 20:17:23;;;;;;;3.28;1.50;;;9.20;99.90;;;;;;6030392;23;20042;-88
2022/02/08 20:19:50;;;;;;;2.70;1.25;;;9.20;99.90;;;;;;6078262;23;20017;-88
2022/02/08 20:22:20;;;;;;;1.17;1.00;;;9.10;99.90;;;;;;6080878;23;20052;-88
2022/02/08 20:24:49;;;;;;;2.05;1.50;;;9.20;99.90;;;;;;6084228;23;20014;-88
2022/02/08 20:27:52;;;;;;;1.42;1.17;;;9.20;99.90;;;;;;6061265;23;20391;-88
2022/02/08 20:30:24;;;;;;;5.15;1.92;;;9.10;99.90;;;;;;6064420;23;20085;-88
2022/02/08 20:32:52;;;;;;;4.40;1.90;;;9.10;99.90;;;;;;6073077;23;20126;-88
2022/02/08 20:35:30;;;;;;;2.20;1.63;;;9.10;99.90;;;;;;6063164;23;20092;-88
2022/02/08 20:37:58;;;;;;;2.35;1.50;;;9.10;99.90;;;;;;6057388;23;20117;-88
2022/02/08 20:40:23;;;;;;;2.97;1.60;;;9.30;99.90;;;;;;6062665;23;20005;-88
2022/02/08 20:43:11;;;;;;;2.60;1.48;;;9.10;99.90;;;;;;6055731;23;20024;-88
2022/02/08 20:45:38;;;;;;;4.78;1.92;;;9.10;99.90;;;;;;6026426;23;20045;-88
2022/02/08 20:48:04;;;;;;;2.97;1.63;;;9.10;99.90;;;;;;6029584;23;20018;-87
2022/02/08 20:50:30;;;;;;;2.45;1.00;;;9.10;99.90;;;;;;6072715;23;20024;-87
2022/02/08 20:53:04;;;;;;;4.25;1.65;;;9.10;99.90;;;;;;6072255;23;20354;-87
2022/02/08 20:55:40;;;;;;;7.43;1.60;;;9.10;99.90;;;;;;6045269;23;20438;-87